sensor_id;sensor_type;location;lat;lon;timestamp;P1;durP1;ratioP1;P2;durP2;ratioP2
2175;SDS011;1094;49.902;10.876;2022-12-22T00:00:23;36.37;;;28.10;;
2175;SDS011;1094;49.902;10.876;2022-12-22T00:03:11;33.53;;;28.07;;
2175;SDS011;1094;49.902;10.876;2022-12-22T00:05:56;42.23;;;28.40;;
2175;SDS011;1094;49.902;10.876;2022-12-22T00:08:40;33.40;;;27.63;;
2175;SDS011;1094;49.902;10.876;2022-12-22T00:11:25;37.03;;;28.73;;
2175;SDS011;1094;49.902;10.876;2022-12-22T00:14:10;35.60;;;25.87;;
2175;SDS011;1094;49.902;10.876;2022-12-22T00:16:55;32.53;;;25.83;;
2175;SDS011;1094;49.902;10.876;2022-12-22T00:19:42;32.13;;;28.00;;
2175;SDS011;1094;49.902;10.876;2022-12-22T00:22:27;31.40;;;26.07;;
2175;SDS011;1094;49.902;10.876;2022-12-22T00:25:12;31.63;;;27.20;;
2175;SDS011;1094;49.902;10.876;2022-12-22T00:27:57;34.40;;;26.63;;
2175;SDS011;1094;49.902;10.876;2022-12-22T00:30:42;32.50;;;25.83;;
2175;SDS011;1094;49.902;10.876;2022-12-22T00:33:27;33.87;;;26.37;;
2175;SDS011;1094;49.902;10.876;2022-12-22T00:36:11;33.77;;;26.27;;
2175;SDS011;1094;49.902;10.876;2022-12-22T00:38:56;40.70;;;28.70;;
2175;SDS011;1094;49.902;10.876;2022-12-22T00:41:41;35.23;;;26.90;;
2175;SDS011;1094;49.902;10.876;2022-12-22T00:44:26;31.53;;;24.17;;
2175;SDS011;1094;49.902;10.876;2022-12-22T00:47:24;34.07;;;26.50;;
2175;SDS011;1094;49.902;10.876;2022-12-22T00:50:09;33.80;;;26.00;;
2175;SDS011;1094;49.902;10.876;2022-12-22T00:52:54;33.80;;;27.03;;
2175;SDS011;1094;49.902;10.876;2022-12-22T00:55:39;42.53;;;26.97;;
2175;SDS011;1094;49.902;10.876;2022-12-22T00:58:24;35.80;;;25.80;;
2175;SDS011;1094;49.902;10.876;2022-12-22T01:01:11;34.57;;;25.70;;
2175;SDS011;1094;49.902;10.876;2022-12-22T01:03:56;37.53;;;25.87;;
2175;SDS011;1094;49.902;10.876;2022-12-22T01:06:41;34.10;;;25.20;;
2175;SDS011;1094;49.902;10.876;2022-12-22T01:09:26;36.53;;;26.57;;
2175;SDS011;1094;49.902;10.876;2022-12-22T01:12:13;36.17;;;25.10;;
2175;SDS011;1094;49.902;10.876;2022-12-22T01:14:58;31.27;;;24.43;;
2175;SDS011;1094;49.902;10.876;2022-12-22T01:17:43;31.00;;;24.47;;
2175;SDS011;1094;49.902;10.876;2022-12-22T01:20:27;31.10;;;24.07;;
2175;SDS011;1094;49.902;10.876;2022-12-22T01:23:12;33.13;;;23.53;;
2175;SDS011;1094;49.902;10.876;2022-12-22T01:25:56;34.40;;;23.90;;
2175;SDS011;1094;49.902;10.876;2022-12-22T01:28:41;30.30;;;22.90;;
2175;SDS011;1094;49.902;10.876;2022-12-22T01:31:30;32.80;;;23.13;;
2175;SDS011;1094;49.902;10.876;2022-12-22T01:34:15;33.97;;;24.37;;
2175;SDS011;1094;49.902;10.876;2022-12-22T01:37:00;35.20;;;23.70;;
2175;SDS011;1094;49.902;10.876;2022-12-22T01:39:44;30.43;;;22.17;;
2175;SDS011;1094;49.902;10.876;2022-12-22T01:42:30;30.50;;;23.70;;
2175;SDS011;1094;49.902;10.876;2022-12-22T01:45:23;34.93;;;24.50;;
2175;SDS011;1094;49.902;10.876;2022-12-22T01:48:09;28.80;;;21.33;;
2175;SDS011;1094;49.902;10.876;2022-12-22T01:50:54;30.33;;;23.20;;
2175;SDS011;1094;49.902;10.876;2022-12-22T01:53:39;32.37;;;23.37;;
2175;SDS011;1094;49.902;10.876;2022-12-22T01:56:24;31.87;;;22.43;;
2175;SDS011;1094;49.902;10.876;2022-12-22T01:59:09;32.97;;;24.00;;
2175;SDS011;1094;49.902;10.876;2022-12-22T02:01:54;34.87;;;23.90;;
2175;SDS011;1094;49.902;10.876;2022-12-22T02:04:40;29.63;;;22.87;;
2175;SDS011;1094;49.902;10.876;2022-12-22T02:13:07;31.37;;;21.83;;
2175;SDS011;1094;49.902;10.876;2022-12-22T02:16:17;32.40;;;25.80;;
2175;SDS011;1094;49.902;10.876;2022-12-22T02:19:07;31.30;;;25.40;;
2175;SDS011;1094;49.902;10.876;2022-12-22T02:21:57;33.73;;;25.13;;
2175;SDS011;1094;49.902;10.876;2022-12-22T02:24:44;31.80;;;25.23;;
2175;SDS011;1094;49.902;10.876;2022-12-22T02:27:30;31.47;;;25.27;;
2175;SDS011;1094;49.902;10.876;2022-12-22T02:30:16;30.73;;;25.23;;
2175;SDS011;1094;49.902;10.876;2022-12-22T02:33:01;28.13;;;24.23;;
2175;SDS011;1094;49.902;10.876;2022-12-22T02:35:54;36.20;;;27.93;;
2175;SDS011;1094;49.902;10.876;2022-12-22T02:41:45;30.87;;;26.43;;
2175;SDS011;1094;49.902;10.876;2022-12-22T02:44:37;33.10;;;25.33;;
2175;SDS011;1094;49.902;10.876;2022-12-22T02:47:34;33.10;;;23.77;;
2175;SDS011;1094;49.902;10.876;2022-12-22T02:50:24;31.57;;;24.47;;
2175;SDS011;1094;49.902;10.876;2022-12-22T02:53:09;31.60;;;23.73;;
2175;SDS011;1094;49.902;10.876;2022-12-22T02:56:02;33.07;;;24.60;;
2175;SDS011;1094;49.902;10.876;2022-12-22T02:58:47;38.70;;;26.17;;
2175;SDS011;1094;49.902;10.876;2022-12-22T03:01:32;38.50;;;28.30;;
2175;SDS011;1094;49.902;10.876;2022-12-22T03:04:17;33.30;;;26.00;;
2175;SDS011;1094;49.902;10.876;2022-12-22T03:07:01;33.80;;;24.37;;
2175;SDS011;1094;49.902;10.876;2022-12-22T03:09:46;31.77;;;25.17;;
2175;SDS011;1094;49.902;10.876;2022-12-22T03:12:30;30.47;;;24.60;;
2175;SDS011;1094;49.902;10.876;2022-12-22T03:15:15;31.27;;;24.47;;
2175;SDS011;1094;49.902;10.876;2022-12-22T03:18:00;34.27;;;23.53;;
2175;SDS011;1094;49.902;10.876;2022-12-22T03:20:45;33.90;;;23.97;;
2175;SDS011;1094;49.902;10.876;2022-12-22T03:23:30;34.07;;;22.70;;
2175;SDS011;1094;49.902;10.876;2022-12-22T03:26:14;38.00;;;22.80;;
2175;SDS011;1094;49.902;10.876;2022-12-22T03:28:40;31.17;;;20.97;;
2175;SDS011;1094;49.902;10.876;2022-12-22T03:31:06;31.90;;;22.40;;
2175;SDS011;1094;49.902;10.876;2022-12-22T03:33:32;27.40;;;20.57;;
2175;SDS011;1094;49.902;10.876;2022-12-22T03:35:59;31.87;;;22.03;;
2175;SDS011;1094;49.902;10.876;2022-12-22T03:38:25;32.53;;;22.57;;
2175;SDS011;1094;49.902;10.876;2022-12-22T03:40:51;34.27;;;22.00;;
2175;SDS011;1094;49.902;10.876;2022-12-22T03:43:17;28.50;;;21.30;;
2175;SDS011;1094;49.902;10.876;2022-12-22T03:46:02;33.47;;;22.70;;
2175;SDS011;1094;49.902;10.876;2022-12-22T03:48:47;32.60;;;23.03;;
2175;SDS011;1094;49.902;10.876;2022-12-22T03:51:33;32.83;;;23.40;;
2175;SDS011;1094;49.902;10.876;2022-12-22T03:53:59;31.20;;;23.17;;
2175;SDS011;1094;49.902;10.876;2022-12-22T03:56:25;33.13;;;24.37;;
2175;SDS011;1094;49.902;10.876;2022-12-22T03:58:51;31.90;;;22.83;;
2175;SDS011;1094;49.902;10.876;2022-12-22T04:01:17;34.33;;;25.10;;
2175;SDS011;1094;49.902;10.876;2022-12-22T04:03:43;40.47;;;25.23;;
2175;SDS011;1094;49.902;10.876;2022-12-22T04:06:09;37.30;;;24.83;;
2175;SDS011;1094;49.902;10.876;2022-12-22T04:08:35;32.53;;;25.50;;
2175;SDS011;1094;49.902;10.876;2022-12-22T04:11:01;33.40;;;24.43;;
2175;SDS011;1094;49.902;10.876;2022-12-22T04:13:45;36.70;;;24.00;;
2175;SDS011;1094;49.902;10.876;2022-12-22T04:16:11;36.30;;;27.03;;
2175;SDS011;1094;49.902;10.876;2022-12-22T04:18:37;32.70;;;25.60;;
2175;SDS011;1094;49.902;10.876;2022-12-22T04:21:03;34.70;;;24.80;;
2175;SDS011;1094;49.902;10.876;2022-12-22T04:23:30;40.37;;;25.83;;
2175;SDS011;1094;49.902;10.876;2022-12-22T04:25:56;35.03;;;26.37;;
2175;SDS011;1094;49.902;10.876;2022-12-22T04:28:22;33.97;;;25.23;;
2175;SDS011;1094;49.902;10.876;2022-12-22T04:30:48;31.03;;;24.03;;
2175;SDS011;1094;49.902;10.876;2022-12-22T04:33:15;36.47;;;26.40;;
2175;SDS011;1094;49.902;10.876;2022-12-22T04:35:41;35.03;;;24.80;;
2175;SDS011;1094;49.902;10.876;2022-12-22T04:38:06;32.17;;;25.67;;
2175;SDS011;1094;49.902;10.876;2022-12-22T04:40:32;33.27;;;25.17;;
2175;SDS011;1094;49.902;10.876;2022-12-22T04:42:58;28.27;;;23.83;;
2175;SDS011;1094;49.902;10.876;2022-12-22T04:45:24;36.57;;;26.43;;
2175;SDS011;1094;49.902;10.876;2022-12-22T04:47:50;33.47;;;23.90;;
2175;SDS011;1094;49.902;10.876;2022-12-22T04:50:16;28.27;;;22.33;;
2175;SDS011;1094;49.902;10.876;2022-12-22T04:52:42;34.07;;;24.47;;
2175;SDS011;1094;49.902;10.876;2022-12-22T04:55:08;31.07;;;24.87;;
2175;SDS011;1094;49.902;10.876;2022-12-22T04:57:34;33.70;;;24.30;;
2175;SDS011;1094;49.902;10.876;2022-12-22T05:00:00;39.43;;;24.50;;
2175;SDS011;1094;49.902;10.876;2022-12-22T05:02:26;34.23;;;25.20;;
2175;SDS011;1094;49.902;10.876;2022-12-22T05:04:52;33.83;;;24.40;;
2175;SDS011;1094;49.902;10.876;2022-12-22T05:07:18;29.57;;;23.73;;
2175;SDS011;1094;49.902;10.876;2022-12-22T05:09:44;30.57;;;22.90;;
2175;SDS011;1094;49.902;10.876;2022-12-22T05:12:10;30.57;;;23.00;;
2175;SDS011;1094;49.902;10.876;2022-12-22T05:14:55;26.50;;;21.40;;
2175;SDS011;1094;49.902;10.876;2022-12-22T05:17:21;27.90;;;21.67;;
2175;SDS011;1094;49.902;10.876;2022-12-22T05:19:47;27.63;;;21.73;;
2175;SDS011;1094;49.902;10.876;2022-12-22T05:22:13;25.80;;;22.00;;
2175;SDS011;1094;49.902;10.876;2022-12-22T05:24:38;31.70;;;23.17;;
2175;SDS011;1094;49.902;10.876;2022-12-22T05:27:04;29.17;;;23.23;;
2175;SDS011;1094;49.902;10.876;2022-12-22T05:29:30;24.00;;;20.87;;
2175;SDS011;1094;49.902;10.876;2022-12-22T05:31:56;27.13;;;21.10;;
2175;SDS011;1094;49.902;10.876;2022-12-22T05:34:22;28.50;;;21.17;;
2175;SDS011;1094;49.902;10.876;2022-12-22T05:36:48;26.27;;;20.57;;
2175;SDS011;1094;49.902;10.876;2022-12-22T05:39:14;27.67;;;21.17;;
2175;SDS011;1094;49.902;10.876;2022-12-22T05:41:40;25.40;;;19.27;;
2175;SDS011;1094;49.902;10.876;2022-12-22T05:44:06;22.60;;;18.97;;
2175;SDS011;1094;49.902;10.876;2022-12-22T05:46:32;26.40;;;20.10;;
2175;SDS011;1094;49.902;10.876;2022-12-22T05:48:58;22.90;;;20.50;;
2175;SDS011;1094;49.902;10.876;2022-12-22T05:51:24;22.87;;;20.47;;
2175;SDS011;1094;49.902;10.876;2022-12-22T05:53:50;30.37;;;20.33;;
2175;SDS011;1094;49.902;10.876;2022-12-22T05:56:15;25.07;;;20.30;;
2175;SDS011;1094;49.902;10.876;2022-12-22T05:58:41;21.47;;;18.33;;
2175;SDS011;1094;49.902;10.876;2022-12-22T06:01:07;23.87;;;19.20;;
2175;SDS011;1094;49.902;10.876;2022-12-22T06:03:33;23.47;;;19.80;;
2175;SDS011;1094;49.902;10.876;2022-12-22T06:05:59;21.23;;;17.57;;
2175;SDS011;1094;49.902;10.876;2022-12-22T06:08:25;21.50;;;17.63;;
2175;SDS011;1094;49.902;10.876;2022-12-22T06:10:55;19.77;;;16.97;;
2175;SDS011;1094;49.902;10.876;2022-12-22T06:13:21;22.03;;;15.87;;
2175;SDS011;1094;49.902;10.876;2022-12-22T06:15:47;20.20;;;17.03;;
2175;SDS011;1094;49.902;10.876;2022-12-22T06:18:13;17.93;;;15.90;;
2175;SDS011;1094;49.902;10.876;2022-12-22T06:20:39;17.13;;;15.07;;
2175;SDS011;1094;49.902;10.876;2022-12-22T06:23:05;17.77;;;15.93;;
2175;SDS011;1094;49.902;10.876;2022-12-22T06:25:31;17.47;;;15.60;;
2175;SDS011;1094;49.902;10.876;2022-12-22T06:27:57;19.37;;;17.17;;
2175;SDS011;1094;49.902;10.876;2022-12-22T06:30:23;19.20;;;17.17;;
2175;SDS011;1094;49.902;10.876;2022-12-22T06:32:49;18.27;;;16.57;;
2175;SDS011;1094;49.902;10.876;2022-12-22T06:35:15;18.50;;;16.70;;
2175;SDS011;1094;49.902;10.876;2022-12-22T06:37:41;20.07;;;17.77;;
2175;SDS011;1094;49.902;10.876;2022-12-22T06:40:07;20.70;;;16.30;;
2175;SDS011;1094;49.902;10.876;2022-12-22T06:42:34;19.07;;;17.07;;
2175;SDS011;1094;49.902;10.876;2022-12-22T06:45:18;19.97;;;17.93;;
2175;SDS011;1094;49.902;10.876;2022-12-22T06:47:44;19.13;;;17.13;;
2175;SDS011;1094;49.902;10.876;2022-12-22T06:50:10;20.03;;;17.93;;
2175;SDS011;1094;49.902;10.876;2022-12-22T06:52:36;21.73;;;19.60;;
2175;SDS011;1094;49.902;10.876;2022-12-22T06:55:03;22.93;;;20.53;;
2175;SDS011;1094;49.902;10.876;2022-12-22T06:57:29;20.13;;;18.07;;
2175;SDS011;1094;49.902;10.876;2022-12-22T06:59:55;20.50;;;18.50;;
2175;SDS011;1094;49.902;10.876;2022-12-22T07:02:21;19.77;;;17.83;;
2175;SDS011;1094;49.902;10.876;2022-12-22T07:04:47;23.27;;;18.80;;
2175;SDS011;1094;49.902;10.876;2022-12-22T07:07:13;21.63;;;19.40;;
2175;SDS011;1094;49.902;10.876;2022-12-22T07:09:39;25.77;;;18.90;;
2175;SDS011;1094;49.902;10.876;2022-12-22T07:12:05;22.97;;;18.90;;
2175;SDS011;1094;49.902;10.876;2022-12-22T07:14:31;22.90;;;20.03;;
2175;SDS011;1094;49.902;10.876;2022-12-22T07:16:58;23.27;;;18.23;;
2175;SDS011;1094;49.902;10.876;2022-12-22T07:19:24;19.60;;;17.17;;
2175;SDS011;1094;49.902;10.876;2022-12-22T07:21:50;20.03;;;16.80;;
2175;SDS011;1094;49.902;10.876;2022-12-22T07:24:16;24.43;;;17.30;;
2175;SDS011;1094;49.902;10.876;2022-12-22T07:26:47;22.03;;;16.90;;
2175;SDS011;1094;49.902;10.876;2022-12-22T07:29:13;24.37;;;16.57;;
2175;SDS011;1094;49.902;10.876;2022-12-22T07:31:39;26.93;;;17.53;;
2175;SDS011;1094;49.902;10.876;2022-12-22T07:34:05;20.90;;;15.20;;
2175;SDS011;1094;49.902;10.876;2022-12-22T07:36:30;20.40;;;16.10;;
2175;SDS011;1094;49.902;10.876;2022-12-22T07:38:56;21.87;;;16.57;;
2175;SDS011;1094;49.902;10.876;2022-12-22T07:41:22;23.83;;;16.73;;
2175;SDS011;1094;49.902;10.876;2022-12-22T07:44:07;17.77;;;15.90;;
2175;SDS011;1094;49.902;10.876;2022-12-22T07:46:34;21.13;;;16.80;;
2175;SDS011;1094;49.902;10.876;2022-12-22T07:49:00;17.67;;;15.77;;
2175;SDS011;1094;49.902;10.876;2022-12-22T07:51:45;19.50;;;14.73;;
2175;SDS011;1094;49.902;10.876;2022-12-22T07:54:12;21.20;;;15.73;;
2175;SDS011;1094;49.902;10.876;2022-12-22T07:56:38;20.07;;;15.87;;
2175;SDS011;1094;49.902;10.876;2022-12-22T07:59:04;15.97;;;14.07;;
2175;SDS011;1094;49.902;10.876;2022-12-22T08:01:30;18.40;;;14.60;;
2175;SDS011;1094;49.902;10.876;2022-12-22T08:03:56;17.13;;;13.13;;
2175;SDS011;1094;49.902;10.876;2022-12-22T08:06:23;17.87;;;12.63;;
2175;SDS011;1094;49.902;10.876;2022-12-22T08:08:49;16.57;;;12.10;;
2175;SDS011;1094;49.902;10.876;2022-12-22T08:11:15;18.30;;;13.10;;
2175;SDS011;1094;49.902;10.876;2022-12-22T08:13:41;17.87;;;13.00;;
2175;SDS011;1094;49.902;10.876;2022-12-22T08:16:11;15.17;;;12.57;;
2175;SDS011;1094;49.902;10.876;2022-12-22T08:18:37;16.93;;;13.27;;
2175;SDS011;1094;49.902;10.876;2022-12-22T08:21:04;19.23;;;12.97;;
2175;SDS011;1094;49.902;10.876;2022-12-22T08:23:30;16.30;;;12.40;;
2175;SDS011;1094;49.902;10.876;2022-12-22T08:28:33;19.27;;;12.03;;
2175;SDS011;1094;49.902;10.876;2022-12-22T08:31:00;15.17;;;11.93;;
2175;SDS011;1094;49.902;10.876;2022-12-22T08:33:26;15.77;;;14.07;;
2175;SDS011;1094;49.902;10.876;2022-12-22T08:35:53;15.77;;;12.87;;
2175;SDS011;1094;49.902;10.876;2022-12-22T08:38:19;16.80;;;12.20;;
2175;SDS011;1094;49.902;10.876;2022-12-22T08:40:45;15.77;;;11.47;;
2175;SDS011;1094;49.902;10.876;2022-12-22T08:43:12;16.70;;;11.80;;
2175;SDS011;1094;49.902;10.876;2022-12-22T08:45:38;13.57;;;12.27;;
2175;SDS011;1094;49.902;10.876;2022-12-22T08:48:05;17.80;;;13.70;;
2175;SDS011;1094;49.902;10.876;2022-12-22T08:50:31;15.30;;;12.27;;
2175;SDS011;1094;49.902;10.876;2022-12-22T08:53:00;15.20;;;11.60;;
2175;SDS011;1094;49.902;10.876;2022-12-22T08:55:27;12.33;;;10.80;;
2175;SDS011;1094;49.902;10.876;2022-12-22T08:57:53;13.73;;;12.10;;
2175;SDS011;1094;49.902;10.876;2022-12-22T09:00:19;12.40;;;11.00;;
2175;SDS011;1094;49.902;10.876;2022-12-22T09:02:45;11.73;;;10.53;;
2175;SDS011;1094;49.902;10.876;2022-12-22T09:05:11;13.33;;;10.07;;
2175;SDS011;1094;49.902;10.876;2022-12-22T09:07:37;12.10;;;10.57;;
2175;SDS011;1094;49.902;10.876;2022-12-22T09:10:03;10.90;;;10.10;;
2175;SDS011;1094;49.902;10.876;2022-12-22T09:12:29;11.30;;;10.37;;
2175;SDS011;1094;49.902;10.876;2022-12-22T09:14:55;10.80;;;10.00;;
2175;SDS011;1094;49.902;10.876;2022-12-22T09:17:21;11.80;;;10.80;;
2175;SDS011;1094;49.902;10.876;2022-12-22T09:19:47;10.33;;;9.33;;
2175;SDS011;1094;49.902;10.876;2022-12-22T09:22:12;10.13;;;8.43;;
2175;SDS011;1094;49.902;10.876;2022-12-22T09:24:38;8.60;;;8.10;;
2175;SDS011;1094;49.902;10.876;2022-12-22T09:27:04;10.73;;;9.97;;
2175;SDS011;1094;49.902;10.876;2022-12-22T09:29:33;8.23;;;7.53;;
2175;SDS011;1094;49.902;10.876;2022-12-22T09:31:58;8.73;;;8.00;;
2175;SDS011;1094;49.902;10.876;2022-12-22T09:34:24;9.80;;;8.80;;
2175;SDS011;1094;49.902;10.876;2022-12-22T09:36:50;8.53;;;8.03;;
2175;SDS011;1094;49.902;10.876;2022-12-22T09:39:16;9.13;;;8.63;;
2175;SDS011;1094;49.902;10.876;2022-12-22T09:41:44;9.23;;;8.77;;
2175;SDS011;1094;49.902;10.876;2022-12-22T09:44:12;10.00;;;9.40;;
2175;SDS011;1094;49.902;10.876;2022-12-22T09:46:38;11.30;;;10.60;;
2175;SDS011;1094;49.902;10.876;2022-12-22T09:49:05;13.93;;;12.60;;
2175;SDS011;1094;49.902;10.876;2022-12-22T09:51:32;16.53;;;11.47;;
2175;SDS011;1094;49.902;10.876;2022-12-22T09:53:59;13.73;;;13.03;;
2175;SDS011;1094;49.902;10.876;2022-12-22T09:56:26;13.80;;;12.80;;
2175;SDS011;1094;49.902;10.876;2022-12-22T09:58:52;14.50;;;13.33;;
2175;SDS011;1094;49.902;10.876;2022-12-22T10:03:49;13.30;;;12.50;;
2175;SDS011;1094;49.902;10.876;2022-12-22T10:06:19;13.20;;;12.00;;
2175;SDS011;1094;49.902;10.876;2022-12-22T10:08:45;14.37;;;13.47;;
2175;SDS011;1094;49.902;10.876;2022-12-22T10:11:13;13.70;;;12.90;;
2175;SDS011;1094;49.902;10.876;2022-12-22T10:13:39;14.00;;;13.20;;
2175;SDS011;1094;49.902;10.876;2022-12-22T10:16:18;13.67;;;12.47;;
2175;SDS011;1094;49.902;10.876;2022-12-22T10:18:54;12.23;;;11.30;;
2175;SDS011;1094;49.902;10.876;2022-12-22T10:21:21;14.70;;;13.70;;
2175;SDS011;1094;49.902;10.876;2022-12-22T10:23:48;16.60;;;15.50;;
2175;SDS011;1094;49.902;10.876;2022-12-22T10:26:24;16.77;;;14.13;;
2175;SDS011;1094;49.902;10.876;2022-12-22T10:29:12;16.87;;;15.73;;
2175;SDS011;1094;49.902;10.876;2022-12-22T10:31:41;16.20;;;14.97;;
2175;SDS011;1094;49.902;10.876;2022-12-22T10:34:19;15.87;;;14.73;;
2175;SDS011;1094;49.902;10.876;2022-12-22T10:36:45;16.57;;;15.50;;
2175;SDS011;1094;49.902;10.876;2022-12-22T10:39:12;18.73;;;16.60;;
2175;SDS011;1094;49.902;10.876;2022-12-22T10:41:44;16.37;;;15.27;;
2175;SDS011;1094;49.902;10.876;2022-12-22T10:46:48;17.10;;;16.00;;
2175;SDS011;1094;49.902;10.876;2022-12-22T10:49:18;16.47;;;15.50;;
2175;SDS011;1094;49.902;10.876;2022-12-22T10:51:46;16.57;;;15.50;;
2175;SDS011;1094;49.902;10.876;2022-12-22T10:54:25;17.10;;;15.87;;
2175;SDS011;1094;49.902;10.876;2022-12-22T10:57:37;17.97;;;16.70;;
2175;SDS011;1094;49.902;10.876;2022-12-22T11:02:21;17.23;;;16.00;;
2175;SDS011;1094;49.902;10.876;2022-12-22T11:04:48;19.07;;;17.40;;
2175;SDS011;1094;49.902;10.876;2022-12-22T11:07:15;18.30;;;17.20;;
2175;SDS011;1094;49.902;10.876;2022-12-22T11:09:41;17.20;;;16.10;;
2175;SDS011;1094;49.902;10.876;2022-12-22T11:15:13;17.60;;;16.23;;
2175;SDS011;1094;49.902;10.876;2022-12-22T11:17:46;17.57;;;15.80;;
2175;SDS011;1094;49.902;10.876;2022-12-22T11:23:01;17.33;;;16.03;;
2175;SDS011;1094;49.902;10.876;2022-12-22T11:30:39;17.57;;;16.30;;
2175;SDS011;1094;49.902;10.876;2022-12-22T11:35:57;17.20;;;15.90;;
2175;SDS011;1094;49.902;10.876;2022-12-22T11:46:29;16.70;;;15.50;;
2175;SDS011;1094;49.902;10.876;2022-12-22T11:49:13;16.90;;;15.63;;
2175;SDS011;1094;49.902;10.876;2022-12-22T11:51:51;15.53;;;14.53;;
2175;SDS011;1094;49.902;10.876;2022-12-22T11:57:09;14.40;;;13.60;;
2175;SDS011;1094;49.902;10.876;2022-12-22T11:59:49;15.70;;;14.40;;
2175;SDS011;1094;49.902;10.876;2022-12-22T12:07:38;13.30;;;12.40;;
2175;SDS011;1094;49.902;10.876;2022-12-22T12:10:11;12.97;;;12.20;;
2175;SDS011;1094;49.902;10.876;2022-12-22T12:12:47;13.23;;;12.40;;
2175;SDS011;1094;49.902;10.876;2022-12-22T12:25:25;11.97;;;11.37;;
2175;SDS011;1094;49.902;10.876;2022-12-22T12:27:57;12.73;;;12.13;;
2175;SDS011;1094;49.902;10.876;2022-12-22T12:30:24;13.50;;;12.63;;
2175;SDS011;1094;49.902;10.876;2022-12-22T12:32:53;14.13;;;13.03;;
2175;SDS011;1094;49.902;10.876;2022-12-22T12:37:49;13.10;;;12.50;;
2175;SDS011;1094;49.902;10.876;2022-12-22T12:42:57;12.23;;;11.60;;
2175;SDS011;1094;49.902;10.876;2022-12-22T12:50:55;12.10;;;11.30;;
2175;SDS011;1094;49.902;10.876;2022-12-22T12:53:22;11.50;;;10.80;;
2175;SDS011;1094;49.902;10.876;2022-12-22T13:01:03;9.93;;;9.40;;
2175;SDS011;1094;49.902;10.876;2022-12-22T13:05:56;8.40;;;7.90;;
2175;SDS011;1094;49.902;10.876;2022-12-22T13:11:34;8.60;;;8.10;;
2175;SDS011;1094;49.902;10.876;2022-12-22T13:23:30;8.60;;;8.07;;
2175;SDS011;1094;49.902;10.876;2022-12-22T13:26:11;9.27;;;8.67;;
2175;SDS011;1094;49.902;10.876;2022-12-22T13:28:39;8.30;;;8.00;;
2175;SDS011;1094;49.902;10.876;2022-12-22T13:31:11;8.80;;;8.40;;
2175;SDS011;1094;49.902;10.876;2022-12-22T13:33:40;7.93;;;7.63;;
2175;SDS011;1094;49.902;10.876;2022-12-22T13:36:07;8.20;;;7.70;;
2175;SDS011;1094;49.902;10.876;2022-12-22T13:38:39;7.43;;;7.13;;
2175;SDS011;1094;49.902;10.876;2022-12-22T13:41:16;7.70;;;7.27;;
2175;SDS011;1094;49.902;10.876;2022-12-22T13:43:42;8.53;;;8.13;;
2175;SDS011;1094;49.902;10.876;2022-12-22T13:46:09;8.20;;;7.90;;
2175;SDS011;1094;49.902;10.876;2022-12-22T13:48:42;8.93;;;8.53;;
2175;SDS011;1094;49.902;10.876;2022-12-22T13:51:13;9.10;;;8.70;;
2175;SDS011;1094;49.902;10.876;2022-12-22T13:53:44;9.60;;;9.13;;
2175;SDS011;1094;49.902;10.876;2022-12-22T13:56:13;9.00;;;8.60;;
2175;SDS011;1094;49.902;10.876;2022-12-22T13:58:40;8.50;;;8.00;;
2175;SDS011;1094;49.902;10.876;2022-12-22T14:03:35;7.80;;;7.50;;
2175;SDS011;1094;49.902;10.876;2022-12-22T14:06:01;8.73;;;8.23;;
2175;SDS011;1094;49.902;10.876;2022-12-22T14:08:27;7.83;;;7.33;;
2175;SDS011;1094;49.902;10.876;2022-12-22T14:10:53;7.60;;;7.30;;
2175;SDS011;1094;49.902;10.876;2022-12-22T14:13:22;7.57;;;7.17;;
2175;SDS011;1094;49.902;10.876;2022-12-22T14:15:58;7.60;;;7.20;;
2175;SDS011;1094;49.902;10.876;2022-12-22T14:18:24;7.87;;;6.90;;
2175;SDS011;1094;49.902;10.876;2022-12-22T14:20:50;7.90;;;7.57;;
2175;SDS011;1094;49.902;10.876;2022-12-22T14:23:18;7.40;;;6.97;;
2175;SDS011;1094;49.902;10.876;2022-12-22T14:25:45;7.30;;;7.00;;
2175;SDS011;1094;49.902;10.876;2022-12-22T14:28:25;6.90;;;6.60;;
2175;SDS011;1094;49.902;10.876;2022-12-22T14:30:52;6.67;;;6.37;;
2175;SDS011;1094;49.902;10.876;2022-12-22T14:38:38;6.60;;;6.30;;
2175;SDS011;1094;49.902;10.876;2022-12-22T14:41:39;6.40;;;6.10;;
2175;SDS011;1094;49.902;10.876;2022-12-22T14:44:05;6.20;;;6.00;;
2175;SDS011;1094;49.902;10.876;2022-12-22T14:46:31;6.43;;;6.00;;
2175;SDS011;1094;49.902;10.876;2022-12-22T14:48:57;6.20;;;5.90;;
2175;SDS011;1094;49.902;10.876;2022-12-22T14:51:24;5.87;;;5.60;;
2175;SDS011;1094;49.902;10.876;2022-12-22T14:56:17;6.07;;;5.77;;
2175;SDS011;1094;49.902;10.876;2022-12-22T14:58:44;6.30;;;5.90;;
2175;SDS011;1094;49.902;10.876;2022-12-22T15:03:40;6.20;;;5.73;;
2175;SDS011;1094;49.902;10.876;2022-12-22T15:06:22;6.57;;;6.07;;
2175;SDS011;1094;49.902;10.876;2022-12-22T15:08:49;6.13;;;5.83;;
2175;SDS011;1094;49.902;10.876;2022-12-22T15:11:19;5.90;;;5.70;;
2175;SDS011;1094;49.902;10.876;2022-12-22T15:13:46;5.50;;;5.20;;
2175;SDS011;1094;49.902;10.876;2022-12-22T15:16:13;6.07;;;5.77;;
2175;SDS011;1094;49.902;10.876;2022-12-22T15:18:40;6.20;;;5.70;;
2175;SDS011;1094;49.902;10.876;2022-12-22T15:21:07;6.27;;;5.97;;
2175;SDS011;1094;49.902;10.876;2022-12-22T15:23:34;6.13;;;5.83;;
2175;SDS011;1094;49.902;10.876;2022-12-22T15:26:00;6.17;;;5.87;;
2175;SDS011;1094;49.902;10.876;2022-12-22T15:28:26;5.73;;;5.43;;
2175;SDS011;1094;49.902;10.876;2022-12-22T15:30:52;5.80;;;5.50;;
2175;SDS011;1094;49.902;10.876;2022-12-22T15:33:18;5.20;;;5.00;;
2175;SDS011;1094;49.902;10.876;2022-12-22T15:35:44;5.90;;;5.50;;
2175;SDS011;1094;49.902;10.876;2022-12-22T15:38:14;6.13;;;5.23;;
2175;SDS011;1094;49.902;10.876;2022-12-22T15:40:40;5.27;;;4.97;;
2175;SDS011;1094;49.902;10.876;2022-12-22T15:43:06;6.87;;;6.40;;
2175;SDS011;1094;49.902;10.876;2022-12-22T15:45:32;6.67;;;6.10;;
2175;SDS011;1094;49.902;10.876;2022-12-22T15:48:00;6.27;;;5.90;;
2175;SDS011;1094;49.902;10.876;2022-12-22T15:50:28;6.10;;;5.80;;
2175;SDS011;1094;49.902;10.876;2022-12-22T15:52:56;6.10;;;5.80;;
2175;SDS011;1094;49.902;10.876;2022-12-22T15:55:23;6.30;;;6.00;;
2175;SDS011;1094;49.902;10.876;2022-12-22T15:57:50;6.80;;;6.50;;
2175;SDS011;1094;49.902;10.876;2022-12-22T16:00:17;6.70;;;6.20;;
2175;SDS011;1094;49.902;10.876;2022-12-22T16:02:43;7.00;;;6.60;;
2175;SDS011;1094;49.902;10.876;2022-12-22T16:05:09;6.83;;;6.53;;
2175;SDS011;1094;49.902;10.876;2022-12-22T16:07:36;6.40;;;5.80;;
2175;SDS011;1094;49.902;10.876;2022-12-22T16:10:02;6.83;;;6.43;;
2175;SDS011;1094;49.902;10.876;2022-12-22T16:12:28;5.60;;;5.30;;
2175;SDS011;1094;49.902;10.876;2022-12-22T16:14:55;5.80;;;5.50;;
2175;SDS011;1094;49.902;10.876;2022-12-22T16:17:23;6.50;;;6.07;;
2175;SDS011;1094;49.902;10.876;2022-12-22T16:19:49;6.37;;;5.97;;
2175;SDS011;1094;49.902;10.876;2022-12-22T16:22:16;5.50;;;5.20;;
2175;SDS011;1094;49.902;10.876;2022-12-22T16:24:43;6.20;;;5.80;;
2175;SDS011;1094;49.902;10.876;2022-12-22T16:27:10;5.43;;;5.13;;
2175;SDS011;1094;49.902;10.876;2022-12-22T16:29:37;5.47;;;5.17;;
2175;SDS011;1094;49.902;10.876;2022-12-22T16:34:41;5.47;;;5.07;;
2175;SDS011;1094;49.902;10.876;2022-12-22T16:37:07;6.13;;;5.77;;
2175;SDS011;1094;49.902;10.876;2022-12-22T16:39:33;5.57;;;5.27;;
2175;SDS011;1094;49.902;10.876;2022-12-22T16:41:59;5.67;;;5.37;;
2175;SDS011;1094;49.902;10.876;2022-12-22T16:44:25;5.43;;;5.10;;
2175;SDS011;1094;49.902;10.876;2022-12-22T16:46:51;5.17;;;4.87;;
2175;SDS011;1094;49.902;10.876;2022-12-22T16:49:17;5.83;;;5.43;;
2175;SDS011;1094;49.902;10.876;2022-12-22T16:51:46;6.00;;;5.60;;